Impacts METAR Board
IDs:

KCLE - Cleveland/Hopkins In, OH, US

Updated at: 2200 UTC 20 Oct 2018
Potential Impact None Slight Moderate High
Time 20/10Z 20/11Z 20/12Z 20/13Z 20/14Z 20/15Z 20/16Z 20/17Z 20/18Z 20/19Z 20/20Z 20/21Z 20/22Z
Temp51 51 50 50 52 53 54 58 54 59 52 48 46
Dewpt46 46 46 46 47 47 47 46 43 44 36 41 35
Altim29.80 29.81 29.80 29.81 29.81 29.79 29.77 29.74 29.69 29.65 29.66 29.73 29.74
VIS10 10 10 10 10 10 10 10 10 10 10 10 8
CIG21 21 21 -- 11 17 23 90 70 -- 80 55 34
CoverOVCOVCBKNFEWOVCOVCOVCBKNOVCFEWOVCOVCOVC
FltCatMVFRMVFRMVFRVFRMVFRMVFRMVFRVFRVFRVFRVFRVFRVFR
WX-----------------RA---RA-RA-RA
WDir250230230220240220220230220250230290260
WSpd12 9 7 9 12 8 10 14 12 14 19 19 13
WGst-- -- -- -- -- -- 17 -- 24 -- 43 33 --
Raw hourly METARs
KCLE 200951Z 25012KT 10SM FEW016 BKN021 OVC025 11/08 A2980 RMK AO2 SLP092 T01060078
KCLE 201051Z 23009KT 10SM BKN021 BKN028 OVC036 11/08 A2981 RMK AO2 SLP093 T01060078
KCLE 201151Z 23007KT 10SM SCT015 BKN021 BKN030 10/08 A2980 RMK AO2 SLP093 70001 T01000078 10111 20094 50003
KCLE 201251Z 22009KT 10SM FEW019 FEW030 10/08 A2981 RMK AO2 SLP094 T01000078
KCLE 201351Z 24012KT 10SM OVC011 11/08 A2981 RMK AO2 SLP094 T01110083
KCLE 201451Z 22008KT 10SM OVC017 12/08 A2979 RMK AO2 SLP089 T01170083 58005
KCLE 201551Z 22010G17KT 10SM SCT018 BKN023 OVC028 12/08 A2977 RMK AO2 SLP082 T01220083
KCLE 201651Z 23014KT 10SM FEW019 BKN090 14/08 A2974 RMK AO2 SLP069 T01440078
KCLE 201751Z 22012G24KT 10SM -RA FEW036 BKN070 OVC100 12/06 A2969 RMK AO2 LTG DSNT N RAB44 SLP055 P0001 60001 T01220061 10144 20094 58033
KCLE 201851Z 25014KT 10SM FEW050 FEW110 15/07 A2965 RMK AO2 LTG DSNT NE SLP042 RAE14 P0002 T01500067
KCLE 201951Z 23019G43KT 10SM -RA FEW041 BKN080 OVC100 11/02 A2966 RMK AO2 PK WND 25043/1945 LTG DSNT N RAB47 SLP046 P0000 T01110022
KCLE 202051Z 29019G33KT 10SM -RA FEW019 BKN055 OVC095 09/05 A2973 RMK AO2 PK WND 29050/2031 WSHFT 2024 LTG DSNT NE RAE01B50 PRESRR SLP068 P0000 60002 T00890050 53013
KCLE 202159Z 26013KT 8SM -RA SCT021 BKN034 OVC050 08/02 A2974 RMK AO2 P0001 T00780017 $



Page loaded:  22:20 UTC  |   03:20 PM Pacific  |   04:20 PM Mountain  |   05:20 PM Central  |   06:20 PM Eastern

 

ADVISORIES

FORECASTS

FORECASTS

OBSERVATIONS

USER TOOLS

ABOUT US